Time;durP1;ratioP1;P1;durP2;ratioP2;P2;SDS_P1;SDS_P2;PMS_P1;PMS_P2;Temp;Humidity;BMP_temperature;BMP_pressure;BME280_temperature;BME280_humidity;BME280_pressure;Samples;Min_cycle;Max_cycle;Signal;HPM_P1;HPM_P2
2022/03/06 00:02:09;;;;;;;25.10;11.00;;;2.80;99.90;;;;;;5016241;28;20033;-47
2022/03/06 00:04:35;;;;;;;21.52;8.80;;;2.80;99.90;;;;;;5015588;28;20022;-46
2022/03/06 00:07:00;;;;;;;22.35;9.15;;;2.80;99.90;;;;;;5014291;28;20026;-47
2022/03/06 00:09:26;;;;;;;21.13;9.73;;;3.00;99.90;;;;;;5016323;28;20026;-47
2022/03/06 00:11:53;;;;;;;25.52;9.75;;;3.00;99.90;;;;;;5015206;28;20030;-46
2022/03/06 00:14:19;;;;;;;22.58;9.93;;;2.90;99.90;;;;;;5016174;28;20029;-47
2022/03/06 00:16:45;;;;;;;26.50;9.88;;;3.00;99.90;;;;;;5014760;28;20026;-46
2022/03/06 00:19:11;;;;;;;25.75;10.93;;;3.00;99.90;;;;;;5016072;28;20022;-47
2022/03/06 00:21:37;;;;;;;22.52;9.40;;;2.90;99.90;;;;;;5015932;28;20030;-47
2022/03/06 00:24:03;;;;;;;26.55;10.10;;;2.80;99.90;;;;;;5015789;28;20026;-47
2022/03/06 00:26:29;;;;;;;20.80;9.20;;;2.80;99.90;;;;;;5015736;28;20030;-47
2022/03/06 00:28:55;;;;;;;23.40;9.88;;;2.80;99.90;;;;;;5015698;28;20113;-47
2022/03/06 00:31:23;;;;;;;22.52;9.50;;;2.80;99.90;;;;;;5016032;28;20464;-48
2022/03/06 00:33:52;;;;;;;21.98;8.60;;;2.70;99.90;;;;;;5014485;28;20030;-47
2022/03/06 00:36:18;;;;;;;20.58;8.75;;;2.70;99.90;;;;;;5015534;28;20056;-50
2022/03/06 00:38:45;;;;;;;22.17;9.68;;;2.60;99.90;;;;;;5016000;28;20088;-47
2022/03/06 00:41:12;;;;;;;19.45;9.05;;;2.60;99.90;;;;;;5015555;28;20141;-50
2022/03/06 00:43:38;;;;;;;19.00;8.13;;;2.50;99.90;;;;;;5015509;28;20032;-47
2022/03/06 00:46:03;;;;;;;20.17;8.73;;;2.50;99.90;;;;;;5014602;28;20116;-47
2022/03/06 00:48:29;;;;;;;20.10;9.38;;;2.40;99.90;;;;;;5014140;28;20076;-47
2022/03/06 00:50:55;;;;;;;17.05;7.97;;;2.30;99.90;;;;;;5015332;28;20036;-49
2022/03/06 00:53:20;;;;;;;16.92;7.93;;;2.30;99.90;;;;;;5014132;28;20034;-49
2022/03/06 00:55:46;;;;;;;18.00;7.88;;;2.30;99.90;;;;;;5013996;28;20026;-49
2022/03/06 00:58:12;;;;;;;21.45;8.23;;;2.20;99.90;;;;;;5015254;28;20022;-47
2022/03/06 01:00:42;;;;;;;17.95;8.43;;;2.20;99.90;;;;;;5015398;28;20037;-48
2022/03/06 01:03:10;;;;;;;20.08;8.52;;;2.20;99.90;;;;;;5013985;28;20081;-46
2022/03/06 01:05:37;;;;;;;18.80;8.35;;;2.00;99.90;;;;;;5013679;28;20109;-47
2022/03/06 01:08:04;;;;;;;21.23;8.18;;;2.00;99.90;;;;;;5015054;28;20025;-51
2022/03/06 01:10:30;;;;;;;17.60;7.70;;;2.10;99.90;;;;;;5014972;28;20046;-49
2022/03/06 01:12:56;;;;;;;15.52;7.15;;;2.00;99.90;;;;;;5013740;28;20022;-50
2022/03/06 01:15:22;;;;;;;16.98;8.07;;;1.90;99.90;;;;;;5015116;28;20024;-50
2022/03/06 01:17:47;;;;;;;23.88;9.82;;;1.90;99.90;;;;;;5014572;28;20029;-46
2022/03/06 01:20:13;;;;;;;19.15;8.38;;;1.90;99.90;;;;;;5014408;28;20018;-51
2022/03/06 01:22:39;;;;;;;16.92;7.95;;;1.80;99.90;;;;;;5014898;28;20026;-54
2022/03/06 01:25:05;;;;;;;20.48;8.48;;;1.70;99.90;;;;;;5013438;28;20117;-46
2022/03/06 01:27:31;;;;;;;16.88;8.23;;;1.80;99.90;;;;;;5013761;28;20059;-47
2022/03/06 01:29:57;;;;;;;24.92;9.60;;;1.80;99.90;;;;;;5014476;28;20040;-47
2022/03/06 01:32:23;;;;;;;16.92;8.40;;;1.80;99.90;;;;;;5014508;28;20018;-47
2022/03/06 01:34:49;;;;;;;23.02;9.50;;;1.80;99.90;;;;;;5014452;28;20014;-47
2022/03/06 01:37:14;;;;;;;19.13;9.13;;;1.80;99.90;;;;;;5013332;28;20022;-47
2022/03/06 01:39:41;;;;;;;20.10;8.35;;;1.80;99.90;;;;;;5014475;28;20022;-46
2022/03/06 01:42:07;;;;;;;22.10;9.77;;;1.80;99.90;;;;;;5014985;28;20025;-46
2022/03/06 01:44:33;;;;;;;22.38;8.82;;;1.80;99.90;;;;;;5014610;28;20113;-46
2022/03/06 01:46:58;;;;;;;21.10;10.98;;;1.70;99.90;;;;;;5013058;28;20104;-46
2022/03/06 01:49:24;;;;;;;25.27;9.80;;;1.60;99.90;;;;;;5014380;28;20026;-46
2022/03/06 01:51:50;;;;;;;22.08;8.75;;;1.70;99.90;;;;;;5012976;28;20052;-46
2022/03/06 01:54:15;;;;;;;20.10;9.20;;;1.50;99.90;;;;;;5014446;28;20029;-48
2022/03/06 01:56:42;;;;;;;32.28;12.35;;;1.50;99.90;;;;;;5012870;28;20049;-49
2022/03/06 01:59:09;;;;;;;23.52;9.73;;;1.50;99.90;;;;;;5013209;28;20029;-46
2022/03/06 02:01:35;;;;;;;22.13;9.40;;;1.50;99.90;;;;;;5014083;28;20022;-48
2022/03/06 02:04:01;;;;;;;21.85;8.73;;;1.60;99.90;;;;;;5014099;28;20018;-47
2022/03/06 02:06:27;;;;;;;19.23;8.38;;;1.50;99.90;;;;;;5014320;28;20058;-46
2022/03/06 02:08:53;;;;;;;18.73;6.85;;;1.50;99.90;;;;;;5013027;28;20029;-47
2022/03/06 02:11:22;;;;;;;16.63;8.02;;;1.40;99.90;;;;;;5014221;28;20030;-47
2022/03/06 02:13:47;;;;;;;23.00;9.13;;;1.50;99.90;;;;;;5013928;28;20026;-47
2022/03/06 02:16:13;;;;;;;21.38;9.15;;;1.50;99.90;;;;;;5013906;28;20089;-47
2022/03/06 02:18:39;;;;;;;24.30;9.52;;;1.50;99.90;;;;;;5012648;28;20029;-49
2022/03/06 02:21:12;;;;;;;18.35;8.52;;;1.50;99.90;;;;;;5013788;28;20396;-48
2022/03/06 02:23:38;;;;;;;18.50;8.20;;;1.40;99.90;;;;;;5013791;28;20072;-47
2022/03/06 02:26:06;;;;;;;20.73;8.27;;;1.40;99.90;;;;;;5012422;28;20033;-47
2022/03/06 02:28:32;;;;;;;23.45;9.18;;;1.40;99.90;;;;;;5011732;28;20022;-47
2022/03/06 02:30:58;;;;;;;38.95;17.27;;;1.40;99.90;;;;;;5013738;28;20092;-48
2022/03/06 02:33:24;;;;;;;22.75;9.43;;;1.40;99.90;;;;;;5012726;28;20029;-47
2022/03/06 02:35:50;;;;;;;24.90;9.98;;;1.30;99.90;;;;;;5013820;28;20034;-48
2022/03/06 02:38:16;;;;;;;23.73;9.73;;;1.20;99.90;;;;;;5012438;28;20029;-49
2022/03/06 02:40:44;;;;;;;16.27;8.77;;;1.20;99.90;;;;;;5012303;28;20054;-49
2022/03/06 02:43:27;;;;;;;24.77;8.88;;;1.10;99.90;;;;;;5012377;28;20033;-47
2022/03/06 02:45:52;;;;;;;20.17;8.70;;;1.10;99.90;;;;;;5013129;28;20057;-49
2022/03/06 02:48:19;;;;;;;21.73;9.55;;;1.00;99.90;;;;;;5013503;28;20053;-47
2022/03/06 02:50:44;;;;;;;18.02;7.82;;;1.00;99.90;;;;;;5012577;28;20041;-52
2022/03/06 02:53:10;;;;;;;21.98;9.27;;;1.00;99.90;;;;;;5012234;28;20022;-47
2022/03/06 02:55:37;;;;;;;25.95;9.25;;;0.90;99.90;;;;;;5013322;28;20033;-47
2022/03/06 02:58:03;;;;;;;24.92;9.70;;;0.80;99.90;;;;;;5013750;28;20033;-51
2022/03/06 03:00:30;;;;;;;20.17;9.25;;;0.70;99.90;;;;;;5012432;28;20026;-49
2022/03/06 03:02:56;;;;;;;21.95;8.85;;;0.80;99.90;;;;;;5012132;28;20026;-49
2022/03/06 03:05:22;;;;;;;19.85;8.88;;;0.80;99.90;;;;;;5013638;28;20028;-47
2022/03/06 03:07:49;;;;;;;22.33;9.38;;;0.70;99.90;;;;;;5013343;28;20030;-51
2022/03/06 03:10:22;;;;;;;27.80;10.13;;;0.70;99.90;;;;;;5013113;28;20018;-53
2022/03/06 03:12:48;;;;;;;24.77;9.40;;;0.60;99.90;;;;;;5013683;28;20080;-47
2022/03/06 03:15:14;;;;;;;19.05;9.30;;;0.70;99.90;;;;;;5012069;28;20030;-47
2022/03/06 03:17:40;;;;;;;22.65;10.55;;;0.70;99.90;;;;;;5013505;28;20423;-47
2022/03/06 03:20:08;;;;;;;22.00;10.10;;;0.70;99.90;;;;;;5012027;28;20037;-48
2022/03/06 03:22:34;;;;;;;20.52;9.27;;;0.60;99.90;;;;;;5011865;28;20030;-47
2022/03/06 03:24:59;;;;;;;24.30;9.70;;;0.60;99.90;;;;;;5013371;28;20521;-47
2022/03/06 03:27:25;;;;;;;25.13;8.80;;;0.60;99.90;;;;;;5012148;28;20026;-47
2022/03/06 03:29:50;;;;;;;20.08;8.63;;;0.50;99.90;;;;;;5012994;28;20400;-47
2022/03/06 03:32:16;;;;;;;25.77;9.32;;;0.40;99.90;;;;;;5011846;28;20033;-47
2022/03/06 03:34:42;;;;;;;21.27;8.85;;;0.60;99.90;;;;;;5013022;28;20033;-47
2022/03/06 03:37:07;;;;;;;17.98;8.50;;;0.50;99.90;;;;;;5013127;28;20050;-48
2022/03/06 03:39:33;;;;;;;16.02;8.02;;;0.60;99.90;;;;;;5013834;28;20121;-48
2022/03/06 03:41:58;;;;;;;18.02;7.75;;;0.60;99.90;;;;;;5016634;28;20050;-48
2022/03/06 03:44:24;;;;;;;23.70;9.52;;;0.60;99.90;;;;;;5015751;28;20026;-47
2022/03/06 03:46:50;;;;;;;18.63;9.35;;;0.60;99.90;;;;;;5015253;28;20100;-47
2022/03/06 03:49:15;;;;;;;20.00;8.48;;;0.60;99.90;;;;;;5015337;28;20069;-48
2022/03/06 03:51:42;;;;;;;22.08;9.45;;;0.60;99.90;;;;;;5016517;28;20026;-47
2022/03/06 03:54:08;;;;;;;22.10;9.63;;;0.60;99.90;;;;;;5016498;28;20029;-48
2022/03/06 03:56:34;;;;;;;22.85;9.18;;;0.70;99.90;;;;;;5015104;28;20076;-49
2022/03/06 03:59:00;;;;;;;21.83;9.45;;;0.70;99.90;;;;;;5016462;28;20109;-47
2022/03/06 04:01:25;;;;;;;20.25;8.90;;;0.70;99.90;;;;;;5016256;28;20029;-48
2022/03/06 04:03:51;;;;;;;25.92;9.32;;;0.90;99.90;;;;;;5014955;28;20026;-49
2022/03/06 04:06:17;;;;;;;21.52;9.07;;;0.80;99.90;;;;;;5014940;28;20029;-50
2022/03/06 04:08:42;;;;;;;21.45;8.95;;;0.80;99.90;;;;;;5016482;28;20073;-51
2022/03/06 04:11:08;;;;;;;21.13;8.35;;;1.00;99.90;;;;;;5014888;28;20046;-50
2022/03/06 04:13:34;;;;;;;20.90;9.60;;;1.00;99.90;;;;;;5014836;28;20026;-51
2022/03/06 04:16:00;;;;;;;18.23;9.35;;;1.00;99.90;;;;;;5015037;28;20051;-49
2022/03/06 04:18:26;;;;;;;19.98;8.68;;;1.10;99.90;;;;;;5014983;28;20029;-51
2022/03/06 04:20:51;;;;;;;24.63;9.00;;;1.10;99.90;;;;;;5015466;28;20025;-51
2022/03/06 04:23:17;;;;;;;21.75;8.50;;;1.20;99.90;;;;;;5015983;28;20050;-50
2022/03/06 04:25:43;;;;;;;25.00;9.57;;;1.30;99.90;;;;;;5014510;28;20024;-49
2022/03/06 04:28:09;;;;;;;19.77;8.93;;;1.30;99.90;;;;;;5014947;28;20026;-52
2022/03/06 04:30:35;;;;;;;20.50;9.48;;;1.30;99.90;;;;;;5016900;28;20053;-49
2022/03/06 04:33:00;;;;;;;24.15;9.52;;;1.40;99.90;;;;;;5014792;28;20022;-48
2022/03/06 04:35:27;;;;;;;21.48;8.80;;;1.50;99.90;;;;;;5015562;28;20075;-47
2022/03/06 04:37:53;;;;;;;18.92;8.50;;;1.60;99.90;;;;;;5014682;28;20024;-49
2022/03/06 04:40:18;;;;;;;20.92;9.40;;;1.60;99.90;;;;;;5015258;28;20023;-49
2022/03/06 04:42:44;;;;;;;18.13;8.73;;;1.60;99.90;;;;;;5014255;28;20032;-47
2022/03/06 04:45:10;;;;;;;18.58;8.77;;;1.60;99.90;;;;;;5014868;28;20030;-50
2022/03/06 04:47:35;;;;;;;23.25;9.18;;;1.60;99.90;;;;;;5014282;28;20029;-47
2022/03/06 04:50:01;;;;;;;21.58;9.32;;;1.60;99.90;;;;;;5015738;28;20022;-48
2022/03/06 04:52:27;;;;;;;22.20;9.60;;;1.60;99.90;;;;;;5014790;28;20482;-48
2022/03/06 04:54:52;;;;;;;23.45;9.75;;;1.60;99.90;;;;;;5014057;28;20033;-49
2022/03/06 04:57:18;;;;;;;21.65;9.13;;;1.60;99.90;;;;;;5015292;28;20037;-47
2022/03/06 04:59:44;;;;;;;17.77;8.40;;;1.60;99.90;;;;;;5013948;28;20057;-47
2022/03/06 05:02:10;;;;;;;22.73;9.68;;;1.60;99.90;;;;;;5013797;28;20029;-48
2022/03/06 05:04:35;;;;;;;17.67;8.57;;;1.60;99.90;;;;;;5015486;28;20025;-49
2022/03/06 05:07:01;;;;;;;21.40;10.00;;;1.60;99.90;;;;;;5015115;28;20088;-47
2022/03/06 05:09:27;;;;;;;24.58;9.80;;;1.70;99.90;;;;;;5013837;28;20017;-50
2022/03/06 05:11:52;;;;;;;24.67;9.80;;;1.70;99.90;;;;;;5014084;28;20026;-49
2022/03/06 05:14:18;;;;;;;23.73;9.32;;;1.60;99.90;;;;;;5014994;28;20034;-49
2022/03/06 05:16:44;;;;;;;18.52;8.57;;;1.60;99.90;;;;;;5014807;28;20029;-47
2022/03/06 05:19:10;;;;;;;25.73;9.95;;;1.60;99.90;;;;;;5013633;28;20053;-48
2022/03/06 05:21:36;;;;;;;19.02;8.80;;;1.70;99.90;;;;;;5013831;28;20038;-48
2022/03/06 05:24:03;;;;;;;25.58;10.05;;;1.70;99.90;;;;;;5014770;28;20477;-49
2022/03/06 05:26:29;;;;;;;23.60;9.15;;;1.60;99.90;;;;;;5013344;28;20025;-51
2022/03/06 05:28:54;;;;;;;23.27;9.75;;;1.70;99.90;;;;;;5013429;28;20038;-51
2022/03/06 05:31:20;;;;;;;23.83;10.18;;;1.80;99.90;;;;;;5013725;28;20026;-48
2022/03/06 05:33:45;;;;;;;22.77;9.68;;;1.70;99.90;;;;;;5013315;28;20072;-47
2022/03/06 05:36:11;;;;;;;22.90;9.30;;;1.70;99.90;;;;;;5013253;28;20033;-48
2022/03/06 05:38:37;;;;;;;22.00;9.32;;;1.80;99.90;;;;;;5014548;28;20108;-47
2022/03/06 05:41:02;;;;;;;17.90;8.07;;;1.80;99.90;;;;;;5013192;28;20049;-48
2022/03/06 05:43:28;;;;;;;18.67;9.18;;;1.80;99.90;;;;;;5014031;28;20472;-48
2022/03/06 05:45:53;;;;;;;22.90;9.23;;;1.80;99.90;;;;;;5012938;28;20025;-51
2022/03/06 05:48:20;;;;;;;20.17;8.65;;;1.90;99.90;;;;;;5013141;28;20033;-50
2022/03/06 05:50:46;;;;;;;21.58;9.57;;;2.00;99.90;;;;;;5014485;28;20404;-51
2022/03/06 05:53:12;;;;;;;21.33;8.75;;;2.00;99.90;;;;;;5013133;28;20025;-50
2022/03/06 05:55:37;;;;;;;25.05;10.00;;;2.10;99.90;;;;;;5013069;28;20053;-53
2022/03/06 05:58:03;;;;;;;21.13;9.10;;;2.10;99.90;;;;;;5013045;28;20021;-50
2022/03/06 06:00:29;;;;;;;24.02;9.30;;;2.10;99.90;;;;;;5014334;28;20030;-50
2022/03/06 06:02:55;;;;;;;22.10;10.15;;;2.00;99.90;;;;;;5013319;28;20022;-53
2022/03/06 06:05:22;;;;;;;23.02;9.63;;;1.90;99.90;;;;;;5013245;28;20033;-48
2022/03/06 06:07:51;;;;;;;20.40;8.93;;;1.80;99.90;;;;;;5013129;28;20072;-48
2022/03/06 06:10:18;;;;;;;19.45;8.85;;;1.80;99.90;;;;;;5012853;28;20022;-48
2022/03/06 06:12:43;;;;;;;22.40;8.75;;;1.70;99.90;;;;;;5014311;28;20080;-48
2022/03/06 06:15:10;;;;;;;21.05;9.85;;;1.70;99.90;;;;;;5014187;28;20022;-50
2022/03/06 06:17:36;;;;;;;21.63;8.95;;;1.60;99.90;;;;;;5012682;28;20084;-49
2022/03/06 06:20:04;;;;;;;19.58;9.57;;;1.50;99.90;;;;;;5013469;28;20025;-48
2022/03/06 06:22:31;;;;;;;18.40;9.27;;;1.40;99.90;;;;;;5013707;28;20041;-51
2022/03/06 06:25:00;;;;;;;21.35;8.45;;;1.40;99.90;;;;;;5014035;28;20042;-48
2022/03/06 06:27:27;;;;;;;21.85;8.07;;;1.40;99.90;;;;;;5013777;28;20558;-51
2022/03/06 06:29:53;;;;;;;21.40;9.30;;;1.50;99.90;;;;;;5012695;28;20030;-48
2022/03/06 06:32:18;;;;;;;21.27;8.90;;;1.50;99.90;;;;;;5012723;28;20107;-47
2022/03/06 06:34:45;;;;;;;23.25;9.32;;;1.50;99.90;;;;;;5012402;28;20022;-47
2022/03/06 06:37:11;;;;;;;23.85;10.52;;;1.60;99.90;;;;;;5012410;28;20034;-48
2022/03/06 06:39:37;;;;;;;23.20;9.75;;;1.50;99.90;;;;;;5013823;28;20046;-49
2022/03/06 06:42:03;;;;;;;23.35;9.38;;;1.50;99.90;;;;;;5013807;28;20122;-50
2022/03/06 06:44:30;;;;;;;23.55;10.30;;;1.50;99.90;;;;;;5012590;28;20029;-47
2022/03/06 06:46:56;;;;;;;25.70;10.60;;;1.50;99.90;;;;;;5012188;28;20026;-50
2022/03/06 06:49:22;;;;;;;22.17;10.60;;;1.40;99.90;;;;;;5012784;28;20029;-47
2022/03/06 06:51:48;;;;;;;25.20;9.55;;;1.80;99.90;;;;;;5013069;28;20080;-48
2022/03/06 06:54:13;;;;;;;22.50;9.23;;;2.50;99.90;;;;;;5013745;28;20029;-48
2022/03/06 06:56:39;;;;;;;21.10;8.43;;;3.60;99.90;;;;;;5013390;28;20030;-49
2022/03/06 06:59:05;;;;;;;17.77;9.60;;;4.60;99.90;;;;;;5012200;28;20037;-49
2022/03/06 07:01:31;;;;;;;21.42;9.80;;;5.60;99.90;;;;;;5013652;28;20093;-48
2022/03/06 07:03:57;;;;;;;18.75;10.27;;;6.20;99.90;;;;;;5013473;28;20416;-51
2022/03/06 07:06:22;;;;;;;23.20;9.95;;;6.80;99.90;;;;;;5013589;28;20064;-49
2022/03/06 07:08:48;;;;;;;16.40;9.35;;;7.50;99.90;;;;;;5013243;28;20026;-48
2022/03/06 07:11:13;;;;;;;21.23;9.93;;;7.60;99.90;;;;;;5012326;28;20061;-48
2022/03/06 07:13:39;;;;;;;16.65;9.05;;;8.10;99.90;;;;;;5013309;28;20108;-48
2022/03/06 07:16:05;;;;;;;19.65;9.30;;;8.90;99.90;;;;;;5016003;28;20064;-52
2022/03/06 07:18:30;;;;;;;20.30;10.43;;;9.20;99.90;;;;;;5016481;28;20033;-48
2022/03/06 07:20:56;;;;;;;17.05;9.18;;;10.00;99.90;;;;;;5017100;28;20157;-48
2022/03/06 07:23:22;;;;;;;18.10;9.50;;;10.10;99.90;;;;;;5016815;28;20030;-48
2022/03/06 07:25:47;;;;;;;20.80;11.07;;;10.50;99.90;;;;;;5015752;28;20024;-47
2022/03/06 07:28:14;;;;;;;20.15;10.95;;;11.00;98.60;;;;;;5015740;28;20480;-48
2022/03/06 07:30:39;;;;;;;18.70;10.57;;;11.10;96.00;;;;;;5017627;28;20034;-49
2022/03/06 07:33:05;;;;;;;18.45;9.23;;;11.70;95.90;;;;;;5016876;28;20076;-53
2022/03/06 07:35:31;;;;;;;17.65;9.70;;;12.20;94.10;;;;;;5015925;28;20026;-50
2022/03/06 07:37:57;;;;;;;19.23;10.98;;;12.90;94.10;;;;;;5016895;28;20026;-50
2022/03/06 07:40:24;;;;;;;18.35;10.95;;;13.30;91.70;;;;;;5015551;28;20547;-51
2022/03/06 07:42:50;;;;;;;17.25;10.82;;;13.70;90.20;;;;;;5015750;28;20423;-48
2022/03/06 07:45:16;;;;;;;14.52;9.27;;;13.90;87.30;;;;;;5016565;28;20097;-51
2022/03/06 07:47:42;;;;;;;14.32;9.68;;;14.10;88.30;;;;;;5016255;28;20030;-47
2022/03/06 07:50:11;;;;;;;14.98;9.75;;;13.70;85.50;;;;;;5016348;28;20148;-48
2022/03/06 07:52:37;;;;;;;20.50;10.63;;;14.10;85.30;;;;;;5016762;28;20033;-49
2022/03/06 07:55:04;;;;;;;19.13;10.85;;;14.30;82.40;;;;;;5016426;28;20030;-47
2022/03/06 07:57:30;;;;;;;15.15;10.02;;;14.50;82.10;;;;;;5016657;28;20026;-46
2022/03/06 07:59:56;;;;;;;19.50;10.57;;;14.80;82.90;;;;;;5015303;28;20030;-46
2022/03/06 08:02:21;;;;;;;17.02;10.65;;;15.60;79.20;;;;;;5015411;28;20036;-50
2022/03/06 08:04:47;;;;;;;17.40;10.05;;;15.90;80.90;;;;;;5015348;28;20025;-49
2022/03/06 08:07:13;;;;;;;15.35;9.80;;;16.10;76.90;;;;;;5015001;28;20392;-49
2022/03/06 08:09:38;;;;;;;18.25;10.70;;;17.20;76.80;;;;;;5016868;28;20064;-49
2022/03/06 08:12:04;;;;;;;14.93;10.00;;;17.40;72.30;;;;;;5015057;28;20033;-47
2022/03/06 08:14:30;;;;;;;13.45;8.98;;;15.30;71.30;;;;;;5016177;28;20064;-48
2022/03/06 08:16:56;;;;;;;14.00;9.50;;;15.60;76.60;;;;;;5015237;28;20076;-47
2022/03/06 08:19:22;;;;;;;14.98;9.07;;;16.10;72.10;;;;;;5014899;28;20037;-46
2022/03/06 08:21:48;;;;;;;13.45;9.85;;;17.50;75.30;;;;;;5014769;28;20052;-46
2022/03/06 08:24:15;;;;;;;15.57;10.10;;;17.30;67.50;;;;;;5014717;28;20018;-47
2022/03/06 08:26:40;;;;;;;17.38;9.05;;;17.80;67.00;;;;;;5015080;28;20030;-47
2022/03/06 08:29:06;;;;;;;15.85;9.05;;;18.20;74.60;;;;;;5015785;28;20033;-47
2022/03/06 08:34:54;;;;;;;14.07;9.20;;;20.00;65.90;;;;;;5016099;28;20088;-46
2022/03/06 08:37:20;;;;;;;13.88;10.30;;;19.10;59.40;;;;;;5014513;28;20053;-46
2022/03/06 08:39:47;;;;;;;14.13;9.43;;;18.00;61.20;;;;;;5014499;28;20057;-47
2022/03/06 08:42:13;;;;;;;14.05;9.40;;;17.10;61.50;;;;;;5015473;28;20456;-46
2022/03/06 08:44:39;;;;;;;12.05;8.50;;;16.90;63.50;;;;;;5014568;28;20432;-46
2022/03/06 08:47:05;;;;;;;13.98;9.18;;;17.20;68.10;;;;;;5015485;28;20022;-46
2022/03/06 08:49:31;;;;;;;13.52;9.15;;;17.90;62.70;;;;;;5015578;28;20026;-46
2022/03/06 08:51:57;;;;;;;12.88;9.20;;;18.30;60.00;;;;;;5015122;28;20030;-46
2022/03/06 08:54:23;;;;;;;13.13;9.52;;;18.30;60.20;;;;;;5015472;28;20026;-48
2022/03/06 08:56:49;;;;;;;13.77;9.00;;;18.60;60.40;;;;;;5014334;28;20037;-47
2022/03/06 08:59:15;;;;;;;11.57;8.52;;;19.10;59.70;;;;;;5015915;28;20022;-46
2022/03/06 09:01:40;;;;;;;10.90;8.82;;;19.10;58.50;;;;;;5015514;28;20535;-51
2022/03/06 09:04:06;;;;;;;13.50;9.57;;;18.60;59.30;;;;;;5015282;28;20058;-53
2022/03/06 09:06:32;;;;;;;12.90;8.90;;;18.40;58.20;;;;;;5014104;28;20026;-49
2022/03/06 09:08:58;;;;;;;12.57;8.93;;;18.40;58.90;;;;;;5014117;28;20026;-48
2022/03/06 09:11:23;;;;;;;11.00;7.90;;;19.10;60.00;;;;;;5014512;28;20028;-47
2022/03/06 09:13:49;;;;;;;13.85;9.80;;;20.90;62.50;;;;;;5014999;28;20032;-50
2022/03/06 09:16:14;;;;;;;13.05;9.40;;;22.30;55.50;;;;;;5014003;28;20022;-47
2022/03/06 09:18:40;;;;;;;10.93;8.32;;;23.00;56.10;;;;;;5014904;28;20032;-49
2022/03/06 09:21:06;;;;;;;12.35;9.65;;;22.20;54.80;;;;;;5013632;28;20033;-49
2022/03/06 09:23:32;;;;;;;16.52;11.65;;;20.40;53.40;;;;;;5013599;28;20117;-47
2022/03/06 09:25:57;;;;;;;15.40;9.98;;;19.20;55.20;;;;;;5013688;28;20029;-46
2022/03/06 09:28:23;;;;;;;13.82;9.32;;;17.40;58.70;;;;;;5013800;28;20089;-52
2022/03/06 09:30:48;;;;;;;12.88;9.30;;;17.50;61.90;;;;;;5013909;28;20038;-47
2022/03/06 09:33:14;;;;;;;11.00;7.75;;;17.40;60.00;;;;;;5013528;28;20546;-47
2022/03/06 09:35:40;;;;;;;14.73;9.10;;;17.60;62.10;;;;;;5014877;28;20022;-50
2022/03/06 09:38:06;;;;;;;14.98;9.10;;;16.90;59.00;;;;;;5013539;28;20072;-49
2022/03/06 09:40:32;;;;;;;17.33;9.70;;;15.80;60.20;;;;;;5013496;28;20026;-46
2022/03/06 09:42:57;;;;;;;12.00;7.75;;;15.20;62.60;;;;;;5014445;28;20040;-50
2022/03/06 09:45:24;;;;;;;14.27;9.02;;;14.80;64.00;;;;;;5013857;28;20029;-49
2022/03/06 09:47:49;;;;;;;16.17;9.38;;;14.70;63.90;;;;;;5014455;28;20083;-47
2022/03/06 09:50:16;;;;;;;16.08;7.72;;;14.40;64.80;;;;;;5013479;28;20112;-49
2022/03/06 09:52:42;;;;;;;13.70;8.48;;;14.30;67.50;;;;;;5014353;28;20033;-46
2022/03/06 09:55:09;;;;;;;15.77;8.75;;;14.60;64.50;;;;;;5014344;28;20033;-50
2022/03/06 09:57:35;;;;;;;13.00;8.00;;;14.90;63.80;;;;;;5014278;28;20030;-48
2022/03/06 10:00:01;;;;;;;13.32;8.45;;;14.20;64.00;;;;;;5012826;28;20076;-46
2022/03/06 10:02:27;;;;;;;12.48;7.47;;;14.70;66.20;;;;;;5014122;28;20030;-46
2022/03/06 10:04:52;;;;;;;13.02;7.45;;;15.10;60.90;;;;;;5014051;28;20018;-47
2022/03/06 10:07:19;;;;;;;12.57;7.03;;;14.50;60.10;;;;;;5012878;28;20175;-46
2022/03/06 10:09:50;;;;;;;14.48;9.52;;;13.50;59.80;;;;;;5014108;28;20026;-47
2022/03/06 10:12:20;;;;;;;11.02;7.18;;;13.50;62.90;;;;;;5014447;28;20026;-48
2022/03/06 10:14:47;;;;;;;46.95;29.17;;;12.30;60.20;;;;;;5013848;28;20441;-49
2022/03/06 10:17:18;;;;;;;66.88;35.55;;;11.80;63.90;;;;;;5014157;28;20096;-48
2022/03/06 10:19:48;;;;;;;;;;;11.10;62.90;;;;;;5013178;28;20025;-49
2022/03/06 10:22:13;;;;;;;110.22;60.15;;;10.90;64.60;;;;;;5012720;28;19909;-48
2022/03/06 10:24:53;;;;;;;16.58;8.88;;;10.70;62.40;;;;;;5013746;28;20030;-46
2022/03/06 10:27:44;;;;;;;17.65;9.70;;;10.00;61.40;;;;;;5012712;28;20084;-47
2022/03/06 10:30:33;;;;;;;59.20;28.80;;;9.80;60.60;;;;;;5012437;28;20121;-46
2022/03/06 10:33:03;;;;;;;9.88;6.20;;;10.50;61.00;;;;;;5014006;28;20034;-49
2022/03/06 10:35:42;;;;;;;57.08;30.65;;;10.80;62.70;;;;;;5012403;28;20032;-49
2022/03/06 10:38:29;;;;;;;10.63;5.78;;;10.80;59.50;;;;;;5012404;28;20029;-46
2022/03/06 10:41:10;;;;;;;7.43;4.93;;;10.90;58.70;;;;;;5013492;28;20024;-48
2022/03/06 10:43:36;;;;;;;22.00;14.43;;;10.70;58.30;;;;;;5013824;28;20033;-47
2022/03/06 10:46:05;;;;;;;8.95;5.90;;;10.50;60.70;;;;;;5012324;28;20100;-47
2022/03/06 10:48:30;;;;;;;18.13;9.50;;;10.50;60.30;;;;;;5012433;28;20022;-47
2022/03/06 10:51:01;;;;;;;10.50;5.68;;;10.70;61.10;;;;;;5019545;28;20076;-49
2022/03/06 10:53:30;;;;;;;9.13;7.10;;;10.80;58.90;;;;;;5019410;28;20109;-47
2022/03/06 10:56:04;;;;;;;12.52;5.18;;;10.10;58.90;;;;;;5019947;28;20080;-46
2022/03/06 10:58:30;;;;;;;9.90;4.90;;;9.80;60.00;;;;;;5020333;28;20022;-47
2022/03/06 11:00:57;;;;;;;7.28;5.05;;;9.40;59.90;;;;;;5019910;28;20028;-48
2022/03/06 11:03:23;;;;;;;8.88;4.85;;;8.80;61.20;;;;;;5020077;28;20022;-46
2022/03/06 11:05:50;;;;;;;8.85;5.72;;;8.50;61.90;;;;;;5019884;28;20037;-46
2022/03/06 11:08:17;;;;;;;9.20;5.07;;;8.70;63.40;;;;;;5020219;28;20030;-49
2022/03/06 11:10:43;;;;;;;8.43;5.30;;;8.80;63.20;;;;;;5018646;28;20033;-48
2022/03/06 11:13:51;;;;;;;9.13;5.47;;;8.70;63.90;;;;;;5019991;28;20072;-46
2022/03/06 11:16:17;;;;;;;7.68;4.53;;;8.40;62.60;;;;;;5019934;28;20076;-47
2022/03/06 11:18:43;;;;;;;7.20;5.03;;;8.10;63.60;;;;;;5019876;28;20388;-49
2022/03/06 11:21:09;;;;;;;7.68;5.60;;;7.90;63.40;;;;;;5019692;28;20116;-48
2022/03/06 11:23:48;;;;;;;9.00;5.85;;;7.70;64.70;;;;;;5019676;28;20048;-49
2022/03/06 11:26:14;;;;;;;6.95;4.82;;;7.80;65.00;;;;;;5018486;28;20026;-45
2022/03/06 11:29:03;;;;;;;7.80;4.97;;;7.70;64.80;;;;;;5019613;28;20398;-48
2022/03/06 11:31:53;;;;;;;8.50;5.55;;;7.80;64.90;;;;;;5019985;28;20107;-47
2022/03/06 11:34:40;;;;;;;7.57;5.03;;;7.90;65.80;;;;;;5018444;28;20496;-46
2022/03/06 11:37:13;;;;;;;9.30;5.78;;;8.10;64.50;;;;;;5019237;28;20029;-49
2022/03/06 11:39:39;;;;;;;12.40;5.93;;;8.20;65.90;;;;;;5018521;28;20550;-49
2022/03/06 11:42:09;;;;;;;11.05;5.80;;;8.10;66.60;;;;;;5019560;28;20029;-48
2022/03/06 11:44:40;;;;;;;8.15;5.30;;;7.90;65.70;;;;;;5019615;28;20026;-47
2022/03/06 11:47:21;;;;;;;7.22;5.50;;;7.70;66.50;;;;;;5019480;28;20025;-47
2022/03/06 11:49:54;;;;;;;9.48;5.25;;;7.50;65.60;;;;;;5019548;28;20057;-48
2022/03/06 11:52:26;;;;;;;12.00;5.78;;;8.00;68.30;;;;;;5019620;28;20038;-49
2022/03/06 11:54:53;;;;;;;7.15;5.20;;;8.40;67.50;;;;;;5019410;28;20108;-47
2022/03/06 11:57:39;;;;;;;7.30;4.90;;;8.20;65.30;;;;;;5018491;28;20026;-47
2022/03/06 12:00:25;;;;;;;9.90;5.80;;;8.60;70.00;;;;;;5019619;28;20025;-47
2022/03/06 12:02:59;;;;;;;11.65;6.10;;;9.00;70.80;;;;;;5016561;28;20033;-47
2022/03/06 12:05:44;;;;;;;7.60;5.43;;;9.30;68.60;;;;;;5016522;28;20026;-47
2022/03/06 12:08:14;;;;;;;7.55;5.25;;;9.70;71.10;;;;;;5016135;28;20018;-49
2022/03/06 12:10:41;;;;;;;9.45;6.80;;;10.10;68.20;;;;;;5016185;28;20050;-47
2022/03/06 12:13:20;;;;;;;9.55;5.32;;;9.80;67.40;;;;;;5014961;28;20030;-47
2022/03/06 12:16:08;;;;;;;9.60;6.20;;;9.90;69.50;;;;;;5014785;28;20032;-48
2022/03/06 12:18:34;;;;;;;11.38;7.85;;;9.20;63.40;;;;;;5014848;28;20026;-50
2022/03/06 12:21:00;;;;;;;8.68;6.38;;;8.70;63.70;;;;;;5014693;28;20029;-47
2022/03/06 12:23:28;;;;;;;9.70;6.60;;;8.40;69.10;;;;;;5015983;28;20084;-49
2022/03/06 12:25:59;;;;;;;9.13;6.18;;;8.90;69.30;;;;;;5016329;28;20018;-47
2022/03/06 12:28:35;;;;;;;9.13;6.03;;;8.80;65.40;;;;;;5016214;28;20090;-48
2022/03/06 12:31:34;;;;;;;8.80;6.38;;;8.20;70.90;;;;;;5015486;28;20041;-48
2022/03/06 12:34:21;;;;;;;9.00;6.13;;;8.10;65.80;;;;;;5014593;28;20064;-47
2022/03/06 12:36:54;;;;;;;10.18;6.43;;;7.70;66.20;;;;;;5015469;28;20026;-49
2022/03/06 12:39:20;;;;;;;11.82;6.72;;;7.50;69.00;;;;;;5014359;28;20033;-49
2022/03/06 12:41:46;;;;;;;10.07;6.82;;;7.70;67.40;;;;;;5015568;28;20048;-52
2022/03/06 12:44:19;;;;;;;8.02;6.13;;;7.40;67.90;;;;;;5014319;28;20033;-53
2022/03/06 12:46:47;;;;;;;9.50;6.03;;;7.20;67.50;;;;;;5015652;28;20092;-49
2022/03/06 12:49:12;;;;;;;11.13;7.07;;;7.10;68.20;;;;;;5014230;28;20049;-49